Latest Weather Observations for Dunalley

IDT60801

Issued at 6:02 pm EST Monday 21 August 2017 (issued every 30 minutes, with the page automatically refreshed every 10 minutes)

About weather observations | Map of weather stations | Latest weather observations for TAS | Other Formats
Station Details ID: 094254 Name: DUNALLEY (STROUD POINT) Lat: -42.90 Lon: 147.79 Height: 12.43 m
Data from the previous 72 hours. | See also: Recent months at Dunalley
Date/Time
EST
Temp
°C
App
Temp
°C
Dew
Point
°C
Rel
Hum
%
Delta-T
°C
Wind Press
QNH
hPa
Press
MSL
hPa
Rain since
9am
mm
Dir  Spd
km/h
Gust
km/h
Spd
kts
Gust
kts
21/06:00pm 6.6 3.7 2.5 75 1.7 N 7 9 4 5 1013.4 1013.5 0.0
21/05:30pm 7.9 5.5 2.4 68 2.3 N 4 6 2 3 1013.1 1013.1 0.0
21/05:00pm 9.0 6.5 1.7 60 3.0 N 4 6 2 3 1013.0 1013.0 0.0
21/04:30pm 10.2 7.5 2.8 60 3.2 N 6 7 3 4 1012.9 1012.9 0.0
21/04:00pm 10.4 7.9 3.9 64 2.9 N 6 6 3 3 1012.8 1012.8 0.0
21/03:30pm 10.6 8.8 3.6 62 3.1 N 2 4 1 2 1012.9 1012.9 0.0
21/03:00pm 10.8 8.7 1.4 52 3.9 N 2 4 1 2 1012.9 1012.9 0.0
21/02:30pm 10.7 8.3 4.2 64 2.9 N 6 6 3 3 1013.0 1013.0 0.0
21/02:00pm 10.6 7.8 3.2 60 3.2 N 7 7 4 4 1013.2 1013.3 0.0
21/01:30pm 10.9 7.5 3.9 62 3.1 NNE 11 13 6 7 1013.4 1013.5 0.0
21/01:00pm 10.2 6.7 3.3 62 3.0 NNE 11 13 6 7 1013.6 1013.7 0.0
21/12:30pm 10.1 7.4 3.6 64 2.8 NNE 7 9 4 5 1014.0 1014.1 0.0
21/12:00pm 10.1 7.5 4.3 67 2.6 NNE 7 9 4 5 1014.3 1014.4 0.0
21/11:30am 9.5 6.9 4.1 69 2.4 NNE 7 9 4 5 1014.7 1014.8 0.0
21/11:00am 9.3 6.7 4.3 71 2.2 NNE 7 7 4 4 1015.0 1015.1 0.0
21/10:30am 9.1 6.2 4.5 73 2.0 NNE 9 11 5 6 1015.2 1015.3 0.0
21/10:00am 8.5 6.1 4.1 74 1.9 NNE 6 9 3 5 1015.3 1015.4 0.0
21/09:30am 8.3 6.5 5.2 81 1.4 NNE 4 6 2 3 1015.6 1015.7 0.0
21/09:00am 7.9 6.9 5.4 84 1.1 CALM 0 2 0 1 1015.7 1015.8 0.0
21/08:30am 7.0 5.1 4.8 86 1.0 NNE 4 6 2 3 1015.9 1016.0 0.0
21/08:00am 6.4 4.8 4.4 87 0.9 NNE 2 4 1 2 1016.0 1016.1 0.0
21/07:30am 6.1 4.1 4.3 88 0.8 NNE 4 4 2 2 1015.9 1016.0 0.0
21/07:00am 5.9 3.9 4.2 89 0.7 NNE 4 6 2 3 1015.6 1015.7 0.0
21/06:30am 6.1 4.5 4.3 88 0.8 NNE 2 4 1 2 1015.4 1015.5 0.0
21/06:00am 6.4 5.2 4.7 89 0.7 CALM 0 0 0 0 1015.6 1015.7 0.0
21/05:30am 6.2 4.2 4.5 89 0.7 NNE 4 6 2 3 1015.5 1015.6 0.0
21/05:00am 6.2 4.2 4.4 88 0.8 NNE 4 6 2 3 1015.5 1015.6 0.0
21/04:30am 6.2 4.2 4.5 89 0.7 NNE 4 6 2 3 1015.8 1015.9 0.0
21/04:00am 6.2 5.0 4.4 88 0.8 CALM 0 0 0 0 1015.9 1016.0 0.0
21/03:30am 6.1 4.5 4.3 88 0.8 NNE 2 6 1 3 1016.0 1016.1 0.0
21/03:00am 6.1 4.9 4.4 89 0.7 CALM 0 0 0 0 1016.2 1016.3 0.0
21/02:30am 5.9 4.6 4.2 89 0.7 CALM 0 0 0 0 1016.4 1016.5 0.0
21/02:00am 5.2 2.6 3.4 88 0.7 NNE 6 7 3 4 1016.5 1016.6 0.0
21/01:30am 5.9 3.8 3.9 87 0.8 NNE 4 6 2 3 1016.5 1016.6 0.0
21/01:00am 5.9 3.8 3.7 86 0.9 NNE 4 7 2 4 1016.8 1016.9 0.0
21/12:30am 5.2 2.8 2.4 82 1.1 NNE 4 7 2 4 1016.9 1017.0 0.0
21/12:00am 6.3 4.9 3.3 81 1.3 CALM 0 0 0 0 1017.1 1017.2 0.0
 
Date/Time
EST
Temp
°C
App
Temp
°C
Dew
Point
°C
Rel
Hum
%
Delta-T
°C
Wind Press
QNH
hPa
Press
MSL
hPa
Rain since
9am
mm
Dir  Spd
km/h
Gust
km/h
Spd
kts
Gust
kts
20/11:30pm 6.3 4.9 3.3 81 1.3 CALM 0 2 0 1 1017.4 1017.5 0.0
20/11:00pm 6.8 5.3 3.2 78 1.5 CALM 0 0 0 0 1017.7 1017.8 0.0
20/10:30pm 7.2 5.2 4.2 81 1.3 NNE 4 6 2 3 1018.1 1018.2 0.0
20/10:00pm 6.8 5.5 4.3 84 1.1 CALM 0 2 0 1 1018.3 1018.4 0.0
20/09:30pm 6.3 4.2 3.8 84 1.1 NNE 4 6 2 3 1018.2 1018.3 0.0
20/09:00pm 6.2 3.1 3.5 83 1.1 NNE 9 11 5 6 1018.0 1018.1 0.0
20/08:30pm 6.8 3.4 4.1 83 1.2 NNE 11 13 6 7 1017.8 1017.9 0.0
20/08:00pm 7.2 3.4 4.0 80 1.4 NNE 13 15 7 8 1017.6 1017.7 0.0
20/07:30pm 7.8 4.4 4.0 77 1.6 NNE 11 13 6 7 1017.7 1017.8 0.0
20/07:00pm 8.7 5.4 4.3 74 1.9 NNE 11 13 6 7 1017.9 1018.0 0.0
20/06:30pm 8.1 5.0 3.8 74 1.9 NNE 9 11 5 6 1017.9 1018.0 0.0
20/06:00pm 8.6 5.6 4.0 73 2.0 NE 9 11 5 6 1017.8 1017.9 0.0
20/05:30pm 9.1 5.7 4.1 71 2.2 NE 11 13 6 7 1017.8 1017.9 0.0
20/05:00pm 9.6 5.9 4.2 69 2.4 NE 13 17 7 9 1017.9 1018.0 0.0
20/04:30pm 10.2 7.9 2.8 60 3.2 WSW 4 7 2 4 1017.9 1018.0 0.0
20/04:00pm 10.8 8.3 4.0 63 3.0 WSW 6 6 3 3 1017.9 1018.0 0.0
20/03:30pm 11.0 8.4 3.3 59 3.4 WSW 6 7 3 4 1018.0 1018.1 0.0
20/03:00pm 11.1 8.4 3.6 60 3.3 WSW 7 9 4 5 1018.2 1018.3 0.0
20/02:30pm 11.1 8.5 3.2 58 3.5 WSW 6 7 3 4 1018.3 1018.4 0.0
20/02:00pm 11.1 8.4 2.7 56 3.6 WSW 6 6 3 3 1018.6 1018.7 0.0
20/01:30pm 11.2 8.0 5.1 66 2.8 WSW 11 13 6 7 1019.0 1019.1 0.0
20/01:00pm 11.0 6.9 4.2 63 3.0 W 15 19 8 10 1019.5 1019.6 0.0
20/12:30pm 11.7 6.9 2.7 54 3.9 W 17 22 9 12 1020.0 1020.1 0.0
20/12:00pm 11.1 6.7 2.7 56 3.6 W 15 20 8 11 1020.6 1020.7 0.0
20/11:30am 11.1 6.6 2.4 55 3.7 WNW 15 22 8 12 1021.2 1021.3 0.0
20/11:00am 10.8 6.3 2.4 56 3.6 WNW 15 22 8 12 1021.4 1021.5 0.0
20/10:30am 10.3 5.8 2.2 57 3.4 WNW 15 20 8 11 1021.6 1021.7 0.0
20/10:00am 9.6 4.3 2.0 59 3.2 WNW 19 24 10 13 1021.6 1021.7 0.0
20/09:30am 9.3 4.4 1.9 60 3.1 WNW 17 22 9 12 1021.8 1021.9 0.0
20/09:00am 8.4 3.1 1.6 62 2.8 NW 19 28 10 15 1021.8 1021.9 0.0
20/08:30am 7.8 2.4 1.0 62 2.7 NW 19 28 10 15 1022.1 1022.2 0.0
20/08:00am 7.4 1.9 0.6 62 2.7 NW 19 26 10 14 1022.3 1022.4 0.0
20/07:30am 6.5 1.4 0.6 66 2.3 NNW 17 24 9 13 1022.2 1022.3 0.0
20/07:00am 5.7 0.5 0.1 67 2.1 NNW 17 26 9 14 1022.0 1022.1 0.0
20/06:30am 6.1 0.5 0.0 65 2.3 NW 19 28 10 15 1021.8 1021.9 0.0
20/06:00am 5.9 0.3 -0.2 65 2.3 NW 19 26 10 14 1021.9 1022.0 0.0
20/05:30am 5.6 0.4 -0.2 66 2.2 NNW 17 22 9 12 1021.9 1022.0 0.0
20/05:00am 5.6 0.4 -0.2 66 2.2 NNW 17 24 9 13 1022.0 1022.1 0.0
20/04:30am 5.8 0.6 0.0 66 2.2 NW 17 24 9 13 1021.9 1022.0 0.0
20/04:00am 5.7 0.5 0.3 68 2.1 NNW 17 22 9 12 1021.9 1022.0 0.0
20/03:30am 5.7 0.5 -0.1 66 2.2 NW 17 22 9 12 1022.0 1022.1 0.0
20/03:00am 5.8 0.6 0.2 67 2.1 NW 17 20 9 11 1022.1 1022.2 0.0
20/02:30am 5.7 0.0 0.3 68 2.1 NW 20 28 11 15 1022.1 1022.2 0.0
20/02:00am 5.7 0.5 0.1 67 2.1 NW 17 24 9 13 1022.4 1022.5 0.0
20/01:30am 5.5 -0.6 0.5 70 1.9 NW 22 30 12 16 1022.5 1022.6 0.0
20/01:00am 5.3 -0.4 0.3 70 1.9 WNW 20 28 11 15 1022.7 1022.8 0.0
20/12:30am 5.6 -0.5 0.4 69 2.0 NW 22 28 12 15 1022.8 1022.9 0.0
20/12:00am 5.6 -0.1 0.6 70 1.9 NW 20 30 11 16 1022.9 1023.0 0.0
 
Date/Time
EST
Temp
°C
App
Temp
°C
Dew
Point
°C
Rel
Hum
%
Delta-T
°C
Wind Press
QNH
hPa
Press
MSL
hPa
Rain since
9am
mm
Dir  Spd
km/h
Gust
km/h
Spd
kts
Gust
kts
19/11:30pm 5.4 -0.1 0.4 70 1.9 NW 19 24 10 13 1022.7 1022.8 0.0
19/11:00pm 5.8 0.2 0.2 67 2.1 NW 19 26 10 14 1022.7 1022.8 0.0
19/10:30pm 5.9 0.7 0.3 67 2.2 NW 17 22 9 12 1022.7 1022.8 0.0
19/10:00pm 6.2 1.1 0.5 67 2.2 WNW 17 20 9 11 1022.9 1023.0 0.0
19/09:30pm 5.9 1.2 0.9 70 2.0 W 15 19 8 10 1022.9 1023.0 0.0
19/09:00pm 7.3 0.7 2.0 69 2.2 W 26 32 14 17 1023.0 1023.1 0.0
19/08:30pm 7.4 0.5 2.5 71 2.0 W 28 32 15 17 1023.1 1023.2 0.0
19/08:00pm 7.5 0.7 3.0 73 1.9 WSW 28 32 15 17 1023.1 1023.2 0.0
19/07:30pm 7.7 2.1 3.2 73 1.9 W 22 26 12 14 1023.2 1023.3 0.0
19/07:00pm 8.1 2.4 2.6 68 2.3 WSW 22 24 12 13 1023.2 1023.3 0.0
19/06:30pm 8.2 2.0 2.0 65 2.6 WSW 24 28 13 15 1023.1 1023.2 0.0
19/06:00pm 8.3 1.4 2.3 66 2.5 WSW 28 32 15 17 1023.0 1023.1 0.0
19/05:30pm 8.3 1.4 2.3 66 2.5 WSW 28 32 15 17 1022.8 1022.9 0.0
19/05:00pm 8.6 2.1 2.6 66 2.5 SW 26 32 14 17 1022.7 1022.8 0.0
19/04:30pm 8.8 1.8 2.2 63 2.8 SW 28 32 15 17 1022.5 1022.6 0.0
19/04:00pm 9.2 2.3 2.8 64 2.7 SW 28 33 15 18 1022.4 1022.5 0.0
19/03:30pm 9.3 1.7 2.9 64 2.7 SW 32 35 17 19 1022.0 1022.1 0.0
19/03:00pm 9.3 0.6 2.2 61 3.0 SW 37 44 20 24 1021.9 1022.0 0.0
19/02:30pm 9.1 0.9 2.7 64 2.7 SW 35 44 19 24 1021.9 1022.0 0.0
19/02:00pm 9.3 0.7 2.4 62 2.9 SW 37 44 20 24 1021.8 1021.9 0.0
19/01:30pm 8.5 0.4 3.1 69 2.3 SSW 35 46 19 25 1021.7 1021.8 0.0
19/01:25pm 9.0 0.9 3.0 66 2.6 SW 35 41 19 22 1021.8 1021.9 0.0
19/01:00pm 9.7 1.1 2.6 61 3.0 WSW 37 44 20 24 1021.7 1021.8 0.0
19/12:30pm 9.2 0.8 1.6 59 3.1 WSW 35 44 19 24 1021.7 1021.8 0.0
19/12:00pm 8.7 1.2 1.4 60 3.0 WSW 30 35 16 19 1021.9 1022.0 0.0
19/11:30am 8.8 1.0 1.9 62 2.9 WSW 32 37 17 20 1022.2 1022.3 0.0
19/11:00am 8.7 0.7 1.8 62 2.8 WSW 33 44 18 24 1022.3 1022.4 0.0
19/10:30am 8.1 -1.4 1.9 65 2.6 WSW 41 50 22 27 1022.2 1022.3 0.0
19/10:00am 7.9 -1.3 1.5 64 2.6 W 39 46 21 25 1022.0 1022.1 0.0
19/09:30am 7.4 -1.0 1.7 67 2.3 W 35 41 19 22 1021.9 1022.0 0.0
19/09:00am 6.7 -1.7 1.4 69 2.1 W 35 39 19 21 1021.9 1022.0 4.8
19/08:30am 6.4 -1.4 1.9 73 1.8 W 32 37 17 20 1021.9 1022.0 4.8
19/08:00am 6.2 -1.8 1.7 73 1.8 WSW 33 39 18 21 1021.8 1021.9 4.8
19/07:30am 6.1 -1.3 1.8 74 1.7 WSW 30 35 16 19 1021.4 1021.5 4.8
19/07:00am 6.2 -1.7 2.1 75 1.7 WSW 33 39 18 21 1020.6 1020.7 4.8
19/06:30am 6.0 -3.1 1.7 74 1.7 WSW 39 46 21 25 1020.2 1020.3 4.8
19/06:00am 5.9 -1.8 2.5 79 1.4 WSW 32 39 17 21 1019.8 1019.9 4.8
19/05:35am 5.2 -3.1 1.9 79 1.3 SW 35 54 19 29 1020.0 1020.1 4.8
19/05:30am 5.8 -2.9 1.9 76 1.6 SW 37 54 20 29 1019.9 1020.0 4.6
19/05:00am 6.1 -1.0 1.4 72 1.9 SW 28 41 15 22 1019.3 1019.4 4.6
19/04:30am 7.6 -0.2 -0.8 55 3.2 SW 30 41 16 22 1018.8 1018.9 4.6
19/04:00am 7.4 -0.7 -0.5 57 3.0 SW 32 41 17 22 1018.5 1018.6 4.6
19/03:30am 7.2 -0.4 0.6 63 2.6 SW 30 39 16 21 1018.1 1018.2 4.6
19/03:00am 6.8 -0.2 1.7 70 2.1 WSW 28 35 15 19 1017.8 1017.9 4.6
19/02:30am 6.0 0.5 2.1 76 1.6 SSW 20 26 11 14 1017.6 1017.7 4.6
19/02:00am 5.3 -1.6 2.5 82 1.1 SSW 28 35 15 19 1017.8 1017.9 4.4
19/01:30am 6.3 1.2 3.1 80 1.3 S 19 22 10 12 1017.3 1017.4 4.2
19/01:00am 6.4 -0.5 2.7 77 1.5 S 28 37 15 20 1017.1 1017.2 4.2
19/12:30am 6.1 -1.6 2.2 76 1.6 WSW 32 39 17 21 1016.5 1016.6 4.2
19/12:00am 6.8 -0.9 2.3 73 1.8 SW 32 39 17 21 1016.2 1016.3 4.2
 
Date/Time
EST
Temp
°C
App
Temp
°C
Dew
Point
°C
Rel
Hum
%
Delta-T
°C
Wind Press
QNH
hPa
Press
MSL
hPa
Rain since
9am
mm
Dir  Spd
km/h
Gust
km/h
Spd
kts
Gust
kts
18/11:30pm 6.3 -0.8 3.5 82 1.2 SW 30 35 16 19 1016.1 1016.2 4.2
18/11:00pm 5.9 -1.9 2.9 81 1.2 SW 33 41 18 22 1015.6 1015.7 4.2
18/10:30pm 6.2 0.3 3.7 84 1.1 SW 24 41 13 22 1015.7 1015.8 4.0
18/10:00pm 5.2 -2.0 3.2 87 0.8 SSW 30 41 16 22 1015.4 1015.5 4.0
18/09:35pm 6.9 -2.1 2.2 72 1.9 SW 39 57 21 31 1014.9 1015.0 3.2
18/09:30pm 6.9 -1.8 2.0 71 2.0 SW 37 44 20 24 1014.7 1014.8 3.2
18/09:00pm 7.1 -1.5 2.8 74 1.8 SSW 37 50 20 27 1014.2 1014.3 3.2
18/08:36pm 7.0 -1.3 1.9 70 2.1 SW 35 48 19 26 1013.8 1013.9 3.2
18/08:30pm 6.5 -2.6 1.6 71 2.0 WSW 39 54 21 29 1013.7 1013.8 3.2
18/08:23pm 6.3 -4.2 1.2 70 2.0 SW 46 57 25 31 1013.4 1013.5 3.2
18/08:00pm 7.7 -1.5 1.3 64 2.6 SSW 39 50 21 27 1012.8 1012.8 3.2
18/07:30pm 7.5 -2.5 2.2 69 2.2 SSW 44 59 24 32 1012.5 1012.5 3.2
18/07:24pm 7.7 -1.0 2.2 68 2.3 SSW 37 59 20 32 1012.3 1012.3 3.2
18/07:00pm 7.3 -1.5 1.4 66 2.4 SSW 37 46 20 25 1011.9 1011.9 3.2
18/06:30pm 7.2 -0.4 3.1 75 1.7 SSW 32 44 17 24 1011.2 1011.2 3.2
18/06:05pm 6.7 -0.1 3.3 79 1.4 SW 28 48 15 26 1010.8 1010.8 3.2

Other Formats:

Comma delimited format used in spreadsheet applications
http://www.bom.gov.au/fwo/IDT60801/IDT60801.94951.axf

JavaScript Object Notation format (JSON) in row-major order
http://www.bom.gov.au/fwo/IDT60801/IDT60801.94951.json